sensor_id;sensor_type;location;lat;lon;timestamp;P1;durP1;ratioP1;P2;durP2;ratioP2
8735;SDS011;4404;49.308;12.178;2023-06-04T05:50:54;0.80;;;0.80;;
8735;SDS011;4404;49.308;12.178;2023-06-04T05:52:56;0.70;;;0.70;;
8735;SDS011;4404;49.308;12.178;2023-06-04T05:54:58;0.70;;;0.70;;
8735;SDS011;4404;49.308;12.178;2023-06-04T05:57:01;0.80;;;0.80;;
8735;SDS011;4404;49.308;12.178;2023-06-04T05:59:03;0.70;;;0.70;;
8735;SDS011;4404;49.308;12.178;2023-06-04T06:01:05;0.80;;;0.80;;
8735;SDS011;4404;49.308;12.178;2023-06-04T06:03:07;0.80;;;0.80;;
8735;SDS011;4404;49.308;12.178;2023-06-04T06:05:10;0.80;;;0.80;;
8735;SDS011;4404;49.308;12.178;2023-06-04T06:07:13;0.73;;;0.73;;
8735;SDS011;4404;49.308;12.178;2023-06-04T06:09:15;0.90;;;0.90;;
8735;SDS011;4404;49.308;12.178;2023-06-04T06:11:18;0.70;;;0.70;;
8735;SDS011;4404;49.308;12.178;2023-06-04T06:13:21;0.70;;;0.70;;
8735;SDS011;4404;49.308;12.178;2023-06-04T06:15:23;0.70;;;0.70;;
8735;SDS011;4404;49.308;12.178;2023-06-04T06:17:25;0.70;;;0.70;;
8735;SDS011;4404;49.308;12.178;2023-06-04T06:19:28;0.80;;;0.80;;
8735;SDS011;4404;49.308;12.178;2023-06-04T06:21:30;0.70;;;0.70;;
8735;SDS011;4404;49.308;12.178;2023-06-04T06:23:34;0.73;;;0.73;;
8735;SDS011;4404;49.308;12.178;2023-06-04T06:25:36;0.70;;;0.70;;
8735;SDS011;4404;49.308;12.178;2023-06-04T06:27:40;0.70;;;0.70;;
8735;SDS011;4404;49.308;12.178;2023-06-04T06:29:42;0.80;;;0.80;;
8735;SDS011;4404;49.308;12.178;2023-06-04T06:31:45;0.70;;;0.70;;
8735;SDS011;4404;49.308;12.178;2023-06-04T06:33:47;0.70;;;0.70;;
8735;SDS011;4404;49.308;12.178;2023-06-04T06:35:49;0.80;;;0.80;;
8735;SDS011;4404;49.308;12.178;2023-06-04T06:37:51;0.80;;;0.80;;
8735;SDS011;4404;49.308;12.178;2023-06-04T06:39:54;0.80;;;0.80;;
8735;SDS011;4404;49.308;12.178;2023-06-04T06:41:57;0.80;;;0.80;;
8735;SDS011;4404;49.308;12.178;2023-06-04T06:43:59;0.80;;;0.80;;
8735;SDS011;4404;49.308;12.178;2023-06-04T06:46:01;0.70;;;0.70;;
8735;SDS011;4404;49.308;12.178;2023-06-04T06:48:06;0.80;;;0.80;;
8735;SDS011;4404;49.308;12.178;2023-06-04T06:50:08;0.70;;;0.70;;
8735;SDS011;4404;49.308;12.178;2023-06-04T06:52:11;0.70;;;0.70;;
8735;SDS011;4404;49.308;12.178;2023-06-04T06:54:28;0.90;;;0.90;;
8735;SDS011;4404;49.308;12.178;2023-06-04T06:56:38;0.70;;;0.70;;
8735;SDS011;4404;49.308;12.178;2023-06-04T06:58:41;0.70;;;0.70;;
8735;SDS011;4404;49.308;12.178;2023-06-04T07:00:43;0.70;;;0.70;;
8735;SDS011;4404;49.308;12.178;2023-06-04T07:02:45;0.67;;;0.67;;
8735;SDS011;4404;49.308;12.178;2023-06-04T07:04:47;0.70;;;0.70;;
8735;SDS011;4404;49.308;12.178;2023-06-04T07:06:49;0.70;;;0.70;;
8735;SDS011;4404;49.308;12.178;2023-06-04T07:08:51;0.70;;;0.70;;
8735;SDS011;4404;49.308;12.178;2023-06-04T07:10:54;0.70;;;0.70;;
8735;SDS011;4404;49.308;12.178;2023-06-04T07:12:57;0.70;;;0.70;;
8735;SDS011;4404;49.308;12.178;2023-06-04T07:14:59;0.70;;;0.70;;
8735;SDS011;4404;49.308;12.178;2023-06-04T07:17:02;0.60;;;0.60;;
8735;SDS011;4404;49.308;12.178;2023-06-04T07:19:04;0.70;;;0.70;;
8735;SDS011;4404;49.308;12.178;2023-06-04T07:21:06;0.70;;;0.70;;
8735;SDS011;4404;49.308;12.178;2023-06-04T07:23:09;0.70;;;0.70;;
8735;SDS011;4404;49.308;12.178;2023-06-04T07:25:11;0.70;;;0.70;;
8735;SDS011;4404;49.308;12.178;2023-06-04T07:27:13;0.70;;;0.70;;
8735;SDS011;4404;49.308;12.178;2023-06-04T07:29:18;0.70;;;0.70;;
8735;SDS011;4404;49.308;12.178;2023-06-04T07:31:20;0.70;;;0.70;;
8735;SDS011;4404;49.308;12.178;2023-06-04T07:33:22;0.70;;;0.70;;
8735;SDS011;4404;49.308;12.178;2023-06-04T07:35:24;0.70;;;0.70;;
8735;SDS011;4404;49.308;12.178;2023-06-04T07:37:27;0.70;;;0.70;;
8735;SDS011;4404;49.308;12.178;2023-06-04T07:39:29;0.70;;;0.70;;
8735;SDS011;4404;49.308;12.178;2023-06-04T07:41:31;0.70;;;0.70;;
8735;SDS011;4404;49.308;12.178;2023-06-04T07:43:33;0.70;;;0.70;;
8735;SDS011;4404;49.308;12.178;2023-06-04T07:45:37;0.70;;;0.70;;
8735;SDS011;4404;49.308;12.178;2023-06-04T07:47:39;0.70;;;0.70;;
8735;SDS011;4404;49.308;12.178;2023-06-04T07:49:41;0.70;;;0.70;;
8735;SDS011;4404;49.308;12.178;2023-06-04T07:51:43;0.70;;;0.70;;
8735;SDS011;4404;49.308;12.178;2023-06-04T07:53:46;0.70;;;0.70;;
8735;SDS011;4404;49.308;12.178;2023-06-04T07:55:48;0.70;;;0.70;;
8735;SDS011;4404;49.308;12.178;2023-06-04T07:57:50;0.70;;;0.70;;
8735;SDS011;4404;49.308;12.178;2023-06-04T07:59:52;0.70;;;0.70;;
8735;SDS011;4404;49.308;12.178;2023-06-04T08:01:56;0.60;;;0.60;;
8735;SDS011;4404;49.308;12.178;2023-06-04T08:03:58;0.70;;;0.70;;
8735;SDS011;4404;49.308;12.178;2023-06-04T08:06:00;0.60;;;0.60;;
8735;SDS011;4404;49.308;12.178;2023-06-04T08:08:02;0.60;;;0.60;;
8735;SDS011;4404;49.308;12.178;2023-06-04T08:10:05;0.70;;;0.70;;
8735;SDS011;4404;49.308;12.178;2023-06-04T08:12:08;0.70;;;0.70;;
8735;SDS011;4404;49.308;12.178;2023-06-04T08:14:10;0.70;;;0.70;;
8735;SDS011;4404;49.308;12.178;2023-06-04T08:16:13;0.70;;;0.70;;
8735;SDS011;4404;49.308;12.178;2023-06-04T08:18:16;0.97;;;0.97;;
8735;SDS011;4404;49.308;12.178;2023-06-04T08:20:18;0.67;;;0.67;;
8735;SDS011;4404;49.308;12.178;2023-06-04T08:22:21;0.60;;;0.60;;
8735;SDS011;4404;49.308;12.178;2023-06-04T08:24:23;0.70;;;0.70;;
8735;SDS011;4404;49.308;12.178;2023-06-04T08:26:25;0.70;;;0.70;;
8735;SDS011;4404;49.308;12.178;2023-06-04T08:28:28;0.70;;;0.70;;
8735;SDS011;4404;49.308;12.178;2023-06-04T08:30:29;0.70;;;0.70;;
8735;SDS011;4404;49.308;12.178;2023-06-04T08:32:35;0.60;;;0.60;;
8735;SDS011;4404;49.308;12.178;2023-06-04T08:34:39;0.60;;;0.60;;
8735;SDS011;4404;49.308;12.178;2023-06-04T08:36:41;0.60;;;0.60;;
8735;SDS011;4404;49.308;12.178;2023-06-04T08:38:43;0.60;;;0.60;;
8735;SDS011;4404;49.308;12.178;2023-06-04T08:40:45;0.60;;;0.60;;
8735;SDS011;4404;49.308;12.178;2023-06-04T08:42:54;0.50;;;0.50;;
8735;SDS011;4404;49.308;12.178;2023-06-04T08:44:59;0.60;;;0.60;;
8735;SDS011;4404;49.308;12.178;2023-06-04T08:47:02;0.60;;;0.60;;
8735;SDS011;4404;49.308;12.178;2023-06-04T08:49:05;0.60;;;0.60;;
8735;SDS011;4404;49.308;12.178;2023-06-04T08:51:10;0.50;;;0.50;;
8735;SDS011;4404;49.308;12.178;2023-06-04T08:53:12;0.60;;;0.60;;
8735;SDS011;4404;49.308;12.178;2023-06-04T08:55:17;0.70;;;0.70;;
8735;SDS011;4404;49.308;12.178;2023-06-04T08:57:19;0.60;;;0.60;;
8735;SDS011;4404;49.308;12.178;2023-06-04T08:59:22;0.60;;;0.60;;
8735;SDS011;4404;49.308;12.178;2023-06-04T09:01:24;0.60;;;0.60;;
8735;SDS011;4404;49.308;12.178;2023-06-04T09:03:27;0.60;;;0.60;;
8735;SDS011;4404;49.308;12.178;2023-06-04T09:05:31;0.50;;;0.50;;
8735;SDS011;4404;49.308;12.178;2023-06-04T09:07:36;0.52;;;0.52;;
8735;SDS011;4404;49.308;12.178;2023-06-04T09:09:41;0.60;;;0.60;;
8735;SDS011;4404;49.308;12.178;2023-06-04T09:11:49;0.50;;;0.50;;
8735;SDS011;4404;49.308;12.178;2023-06-04T09:13:54;0.50;;;0.50;;
8735;SDS011;4404;49.308;12.178;2023-06-04T09:16:01;0.60;;;0.60;;
8735;SDS011;4404;49.308;12.178;2023-06-04T09:18:04;0.50;;;0.50;;
8735;SDS011;4404;49.308;12.178;2023-06-04T09:20:06;0.50;;;0.50;;
8735;SDS011;4404;49.308;12.178;2023-06-04T09:22:09;0.60;;;0.60;;
8735;SDS011;4404;49.308;12.178;2023-06-04T09:24:13;0.60;;;0.60;;
8735;SDS011;4404;49.308;12.178;2023-06-04T09:26:15;0.60;;;0.60;;
8735;SDS011;4404;49.308;12.178;2023-06-04T09:28:17;0.60;;;0.60;;
8735;SDS011;4404;49.308;12.178;2023-06-04T09:30:21;0.60;;;0.60;;
8735;SDS011;4404;49.308;12.178;2023-06-04T09:32:24;0.60;;;0.60;;
8735;SDS011;4404;49.308;12.178;2023-06-04T09:34:28;0.60;;;0.60;;
8735;SDS011;4404;49.308;12.178;2023-06-04T09:36:31;0.60;;;0.60;;
8735;SDS011;4404;49.308;12.178;2023-06-04T09:38:35;0.50;;;0.50;;
8735;SDS011;4404;49.308;12.178;2023-06-04T09:40:39;0.50;;;0.50;;
8735;SDS011;4404;49.308;12.178;2023-06-04T09:42:42;0.50;;;0.50;;
8735;SDS011;4404;49.308;12.178;2023-06-04T09:44:45;0.60;;;0.60;;
8735;SDS011;4404;49.308;12.178;2023-06-04T09:46:52;0.50;;;0.50;;
8735;SDS011;4404;49.308;12.178;2023-06-04T09:48:59;0.50;;;0.50;;
8735;SDS011;4404;49.308;12.178;2023-06-04T09:51:06;0.50;;;0.50;;
8735;SDS011;4404;49.308;12.178;2023-06-04T09:53:12;0.50;;;0.50;;
8735;SDS011;4404;49.308;12.178;2023-06-04T09:55:16;0.60;;;0.60;;
8735;SDS011;4404;49.308;12.178;2023-06-04T09:57:23;0.60;;;0.60;;
8735;SDS011;4404;49.308;12.178;2023-06-04T09:59:27;0.50;;;0.50;;
8735;SDS011;4404;49.308;12.178;2023-06-04T10:01:30;0.50;;;0.50;;
8735;SDS011;4404;49.308;12.178;2023-06-04T10:03:34;0.40;;;0.40;;
8735;SDS011;4404;49.308;12.178;2023-06-04T10:05:37;0.50;;;0.50;;
8735;SDS011;4404;49.308;12.178;2023-06-04T10:07:41;0.50;;;0.50;;
8735;SDS011;4404;49.308;12.178;2023-06-04T10:09:45;0.50;;;0.50;;
8735;SDS011;4404;49.308;12.178;2023-06-04T10:11:51;0.50;;;0.50;;
8735;SDS011;4404;49.308;12.178;2023-06-04T10:14:02;0.50;;;0.50;;
8735;SDS011;4404;49.308;12.178;2023-06-04T10:16:08;0.50;;;0.50;;
8735;SDS011;4404;49.308;12.178;2023-06-04T10:18:13;0.50;;;0.50;;
8735;SDS011;4404;49.308;12.178;2023-06-04T10:20:15;0.50;;;0.50;;
8735;SDS011;4404;49.308;12.178;2023-06-04T10:22:20;0.55;;;0.55;;
8735;SDS011;4404;49.308;12.178;2023-06-04T10:24:23;0.50;;;0.50;;
8735;SDS011;4404;49.308;12.178;2023-06-04T10:26:26;0.50;;;0.50;;
8735;SDS011;4404;49.308;12.178;2023-06-04T10:28:30;0.50;;;0.50;;
8735;SDS011;4404;49.308;12.178;2023-06-04T10:30:34;0.50;;;0.50;;
8735;SDS011;4404;49.308;12.178;2023-06-04T10:32:37;0.40;;;0.40;;
8735;SDS011;4404;49.308;12.178;2023-06-04T10:34:40;0.40;;;0.40;;
8735;SDS011;4404;49.308;12.178;2023-06-04T10:36:42;0.40;;;0.40;;
8735;SDS011;4404;49.308;12.178;2023-06-04T10:38:45;0.40;;;0.40;;
8735;SDS011;4404;49.308;12.178;2023-06-04T10:40:48;0.40;;;0.40;;
8735;SDS011;4404;49.308;12.178;2023-06-04T10:42:52;0.50;;;0.50;;
8735;SDS011;4404;49.308;12.178;2023-06-04T10:44:55;0.50;;;0.50;;
8735;SDS011;4404;49.308;12.178;2023-06-04T10:46:58;0.50;;;0.50;;
8735;SDS011;4404;49.308;12.178;2023-06-04T10:49:00;0.50;;;0.50;;
8735;SDS011;4404;49.308;12.178;2023-06-04T10:51:02;0.50;;;0.50;;
8735;SDS011;4404;49.308;12.178;2023-06-04T10:53:05;0.40;;;0.40;;
8735;SDS011;4404;49.308;12.178;2023-06-04T10:55:07;0.40;;;0.40;;
8735;SDS011;4404;49.308;12.178;2023-06-04T10:57:10;0.40;;;0.40;;
8735;SDS011;4404;49.308;12.178;2023-06-04T10:59:14;0.38;;;0.38;;
8735;SDS011;4404;49.308;12.178;2023-06-04T11:01:22;0.43;;;0.43;;
8735;SDS011;4404;49.308;12.178;2023-06-04T11:03:35;0.40;;;0.40;;
8735;SDS011;4404;49.308;12.178;2023-06-04T11:05:39;0.40;;;0.40;;
8735;SDS011;4404;49.308;12.178;2023-06-04T11:07:43;0.40;;;0.40;;
8735;SDS011;4404;49.308;12.178;2023-06-04T11:09:47;0.40;;;0.40;;
8735;SDS011;4404;49.308;12.178;2023-06-04T11:11:55;0.30;;;0.30;;
8735;SDS011;4404;49.308;12.178;2023-06-04T11:14:06;0.30;;;0.30;;
8735;SDS011;4404;49.308;12.178;2023-06-04T11:16:16;0.40;;;0.40;;
8735;SDS011;4404;49.308;12.178;2023-06-04T11:18:20;0.40;;;0.40;;
8735;SDS011;4404;49.308;12.178;2023-06-04T11:20:25;0.50;;;0.50;;
8735;SDS011;4404;49.308;12.178;2023-06-04T11:22:27;0.40;;;0.40;;
8735;SDS011;4404;49.308;12.178;2023-06-04T11:24:30;0.40;;;0.40;;
8735;SDS011;4404;49.308;12.178;2023-06-04T11:26:33;0.30;;;0.30;;
8735;SDS011;4404;49.308;12.178;2023-06-04T11:28:37;0.30;;;0.30;;
8735;SDS011;4404;49.308;12.178;2023-06-04T11:30:41;0.30;;;0.30;;
8735;SDS011;4404;49.308;12.178;2023-06-04T11:32:43;0.52;;;0.52;;
8735;SDS011;4404;49.308;12.178;2023-06-04T11:34:45;0.30;;;0.30;;
8735;SDS011;4404;49.308;12.178;2023-06-04T11:36:48;0.30;;;0.30;;
8735;SDS011;4404;49.308;12.178;2023-06-04T11:38:56;0.40;;;0.40;;
8735;SDS011;4404;49.308;12.178;2023-06-04T11:40:59;0.30;;;0.30;;
8735;SDS011;4404;49.308;12.178;2023-06-04T11:43:05;0.40;;;0.40;;
8735;SDS011;4404;49.308;12.178;2023-06-04T11:45:10;0.40;;;0.40;;
8735;SDS011;4404;49.308;12.178;2023-06-04T11:47:13;0.40;;;0.40;;
8735;SDS011;4404;49.308;12.178;2023-06-04T11:49:16;0.50;;;0.50;;
8735;SDS011;4404;49.308;12.178;2023-06-04T11:51:20;0.38;;;0.38;;
8735;SDS011;4404;49.308;12.178;2023-06-04T11:53:24;0.40;;;0.40;;
8735;SDS011;4404;49.308;12.178;2023-06-04T11:55:29;0.40;;;0.40;;
8735;SDS011;4404;49.308;12.178;2023-06-04T11:57:31;0.40;;;0.40;;
8735;SDS011;4404;49.308;12.178;2023-06-04T11:59:33;0.40;;;0.40;;
8735;SDS011;4404;49.308;12.178;2023-06-04T12:01:36;0.40;;;0.40;;
8735;SDS011;4404;49.308;12.178;2023-06-04T12:03:39;0.40;;;0.40;;
8735;SDS011;4404;49.308;12.178;2023-06-04T12:05:43;0.30;;;0.30;;
8735;SDS011;4404;49.308;12.178;2023-06-04T12:07:46;0.30;;;0.30;;
8735;SDS011;4404;49.308;12.178;2023-06-04T12:09:52;0.38;;;0.38;;
8735;SDS011;4404;49.308;12.178;2023-06-04T12:11:57;0.30;;;0.30;;
8735;SDS011;4404;49.308;12.178;2023-06-04T12:14:03;0.40;;;0.40;;
8735;SDS011;4404;49.308;12.178;2023-06-04T12:16:06;0.40;;;0.40;;
8735;SDS011;4404;49.308;12.178;2023-06-04T12:18:08;0.38;;;0.38;;
8735;SDS011;4404;49.308;12.178;2023-06-04T12:20:11;0.40;;;0.40;;
8735;SDS011;4404;49.308;12.178;2023-06-04T12:22:13;0.40;;;0.40;;
8735;SDS011;4404;49.308;12.178;2023-06-04T12:24:15;0.32;;;0.32;;
8735;SDS011;4404;49.308;12.178;2023-06-04T12:26:23;0.30;;;0.30;;
8735;SDS011;4404;49.308;12.178;2023-06-04T12:28:28;0.30;;;0.30;;
8735;SDS011;4404;49.308;12.178;2023-06-04T12:30:37;0.40;;;0.40;;
8735;SDS011;4404;49.308;12.178;2023-06-04T12:32:40;0.20;;;0.20;;
8735;SDS011;4404;49.308;12.178;2023-06-04T12:34:43;0.40;;;0.40;;
8735;SDS011;4404;49.308;12.178;2023-06-04T12:36:45;0.32;;;0.32;;
8735;SDS011;4404;49.308;12.178;2023-06-04T12:38:48;0.40;;;0.40;;
8735;SDS011;4404;49.308;12.178;2023-06-04T12:40:50;0.30;;;0.30;;
8735;SDS011;4404;49.308;12.178;2023-06-04T12:42:53;0.38;;;0.38;;
8735;SDS011;4404;49.308;12.178;2023-06-04T12:44:55;0.22;;;0.22;;
8735;SDS011;4404;49.308;12.178;2023-06-04T12:46:58;0.30;;;0.30;;
8735;SDS011;4404;49.308;12.178;2023-06-04T12:49:00;0.40;;;0.40;;
8735;SDS011;4404;49.308;12.178;2023-06-04T12:51:02;0.40;;;0.40;;
8735;SDS011;4404;49.308;12.178;2023-06-04T12:53:05;0.38;;;0.38;;
8735;SDS011;4404;49.308;12.178;2023-06-04T12:55:07;0.50;;;0.50;;
8735;SDS011;4404;49.308;12.178;2023-06-04T12:57:10;0.40;;;0.40;;
8735;SDS011;4404;49.308;12.178;2023-06-04T12:59:13;0.43;;;0.43;;
8735;SDS011;4404;49.308;12.178;2023-06-04T13:01:16;0.55;;;0.55;;
8735;SDS011;4404;49.308;12.178;2023-06-04T13:03:18;0.60;;;0.60;;
8735;SDS011;4404;49.308;12.178;2023-06-04T13:05:20;0.68;;;0.68;;
8735;SDS011;4404;49.308;12.178;2023-06-04T13:07:22;0.85;;;0.85;;
8735;SDS011;4404;49.308;12.178;2023-06-04T13:09:24;0.75;;;0.75;;
8735;SDS011;4404;49.308;12.178;2023-06-04T13:11:28;0.85;;;0.85;;
8735;SDS011;4404;49.308;12.178;2023-06-04T13:13:30;0.70;;;0.70;;
8735;SDS011;4404;49.308;12.178;2023-06-04T13:15:34;0.50;;;0.50;;
8735;SDS011;4404;49.308;12.178;2023-06-04T13:17:36;0.70;;;0.70;;
8735;SDS011;4404;49.308;12.178;2023-06-04T13:19:40;0.65;;;0.65;;
8735;SDS011;4404;49.308;12.178;2023-06-04T13:21:42;0.50;;;0.50;;
8735;SDS011;4404;49.308;12.178;2023-06-04T13:23:44;0.45;;;0.45;;
8735;SDS011;4404;49.308;12.178;2023-06-04T13:25:46;0.60;;;0.60;;
8735;SDS011;4404;49.308;12.178;2023-06-04T13:27:48;0.45;;;0.45;;
8735;SDS011;4404;49.308;12.178;2023-06-04T13:29:51;0.60;;;0.60;;
8735;SDS011;4404;49.308;12.178;2023-06-04T13:31:54;0.55;;;0.55;;
8735;SDS011;4404;49.308;12.178;2023-06-04T13:33:57;0.50;;;0.50;;
8735;SDS011;4404;49.308;12.178;2023-06-04T13:35:59;0.40;;;0.40;;
8735;SDS011;4404;49.308;12.178;2023-06-04T13:38:02;0.60;;;0.60;;
8735;SDS011;4404;49.308;12.178;2023-06-04T13:40:06;0.63;;;0.63;;
8735;SDS011;4404;49.308;12.178;2023-06-04T13:42:10;1.27;;;1.17;;
8735;SDS011;4404;49.308;12.178;2023-06-04T13:44:12;0.50;;;0.50;;
8735;SDS011;4404;49.308;12.178;2023-06-04T13:46:14;0.95;;;0.93;;
8735;SDS011;4404;49.308;12.178;2023-06-04T13:48:18;0.80;;;0.80;;
8735;SDS011;4404;49.308;12.178;2023-06-04T13:50:20;0.65;;;0.65;;
8735;SDS011;4404;49.308;12.178;2023-06-04T13:52:22;0.60;;;0.60;;
8735;SDS011;4404;49.308;12.178;2023-06-04T13:54:28;0.50;;;0.50;;
8735;SDS011;4404;49.308;12.178;2023-06-04T13:56:31;0.65;;;0.65;;
8735;SDS011;4404;49.308;12.178;2023-06-04T13:58:33;0.50;;;0.50;;
8735;SDS011;4404;49.308;12.178;2023-06-04T14:00:36;0.40;;;0.40;;
8735;SDS011;4404;49.308;12.178;2023-06-04T14:02:38;0.47;;;0.47;;
8735;SDS011;4404;49.308;12.178;2023-06-04T14:04:41;0.52;;;0.52;;
8735;SDS011;4404;49.308;12.178;2023-06-04T14:06:43;0.50;;;0.50;;
8735;SDS011;4404;49.308;12.178;2023-06-04T14:08:47;0.60;;;0.60;;
8735;SDS011;4404;49.308;12.178;2023-06-04T14:10:49;0.43;;;0.43;;
8735;SDS011;4404;49.308;12.178;2023-06-04T14:12:52;0.38;;;0.38;;
8735;SDS011;4404;49.308;12.178;2023-06-04T14:14:54;0.40;;;0.40;;
8735;SDS011;4404;49.308;12.178;2023-06-04T14:16:56;0.40;;;0.40;;
8735;SDS011;4404;49.308;12.178;2023-06-04T14:18:58;0.40;;;0.40;;
8735;SDS011;4404;49.308;12.178;2023-06-04T14:21:02;0.30;;;0.30;;
8735;SDS011;4404;49.308;12.178;2023-06-04T14:23:04;0.40;;;0.40;;
8735;SDS011;4404;49.308;12.178;2023-06-04T14:25:06;0.57;;;0.57;;
8735;SDS011;4404;49.308;12.178;2023-06-04T14:27:10;0.60;;;0.60;;
8735;SDS011;4404;49.308;12.178;2023-06-04T14:29:13;0.35;;;0.35;;
8735;SDS011;4404;49.308;12.178;2023-06-04T14:31:15;0.55;;;0.55;;
8735;SDS011;4404;49.308;12.178;2023-06-04T14:33:17;0.63;;;0.63;;
8735;SDS011;4404;49.308;12.178;2023-06-04T14:35:19;0.60;;;0.60;;
8735;SDS011;4404;49.308;12.178;2023-06-04T14:37:23;0.90;;;0.90;;
8735;SDS011;4404;49.308;12.178;2023-06-04T14:39:26;0.73;;;0.73;;
8735;SDS011;4404;49.308;12.178;2023-06-04T14:41:28;0.50;;;0.50;;
8735;SDS011;4404;49.308;12.178;2023-06-04T14:43:31;0.80;;;0.80;;
8735;SDS011;4404;49.308;12.178;2023-06-04T14:45:33;0.60;;;0.60;;
8735;SDS011;4404;49.308;12.178;2023-06-04T14:47:38;0.55;;;0.55;;
8735;SDS011;4404;49.308;12.178;2023-06-04T14:49:40;0.45;;;0.45;;
8735;SDS011;4404;49.308;12.178;2023-06-04T14:51:42;0.50;;;0.50;;
8735;SDS011;4404;49.308;12.178;2023-06-04T14:53:46;0.40;;;0.40;;
8735;SDS011;4404;49.308;12.178;2023-06-04T14:55:48;0.60;;;0.60;;
8735;SDS011;4404;49.308;12.178;2023-06-04T14:57:51;0.50;;;0.50;;
8735;SDS011;4404;49.308;12.178;2023-06-04T14:59:54;0.40;;;0.40;;
8735;SDS011;4404;49.308;12.178;2023-06-04T15:01:56;0.50;;;0.50;;
8735;SDS011;4404;49.308;12.178;2023-06-04T15:03:59;0.38;;;0.38;;
8735;SDS011;4404;49.308;12.178;2023-06-04T15:06:02;0.30;;;0.30;;
8735;SDS011;4404;49.308;12.178;2023-06-04T15:08:05;0.43;;;0.43;;
8735;SDS011;4404;49.308;12.178;2023-06-04T15:10:09;0.47;;;0.47;;
8735;SDS011;4404;49.308;12.178;2023-06-04T15:12:11;0.45;;;0.45;;
8735;SDS011;4404;49.308;12.178;2023-06-04T15:14:14;0.50;;;0.50;;
8735;SDS011;4404;49.308;12.178;2023-06-04T15:16:17;0.50;;;0.50;;
8735;SDS011;4404;49.308;12.178;2023-06-04T15:18:21;0.40;;;0.40;;
8735;SDS011;4404;49.308;12.178;2023-06-04T15:20:23;0.50;;;0.50;;
8735;SDS011;4404;49.308;12.178;2023-06-04T15:22:27;0.45;;;0.45;;
8735;SDS011;4404;49.308;12.178;2023-06-04T15:24:29;0.55;;;0.55;;
8735;SDS011;4404;49.308;12.178;2023-06-04T15:26:33;0.50;;;0.50;;
8735;SDS011;4404;49.308;12.178;2023-06-04T15:28:37;0.47;;;0.47;;
8735;SDS011;4404;49.308;12.178;2023-06-04T15:30:39;0.40;;;0.40;;
8735;SDS011;4404;49.308;12.178;2023-06-04T15:32:41;0.40;;;0.40;;
8735;SDS011;4404;49.308;12.178;2023-06-04T15:34:44;0.40;;;0.40;;
8735;SDS011;4404;49.308;12.178;2023-06-04T15:36:49;0.30;;;0.30;;
8735;SDS011;4404;49.308;12.178;2023-06-04T15:38:51;0.38;;;0.38;;
8735;SDS011;4404;49.308;12.178;2023-06-04T15:40:53;0.60;;;0.60;;
8735;SDS011;4404;49.308;12.178;2023-06-04T15:42:57;0.40;;;0.40;;
8735;SDS011;4404;49.308;12.178;2023-06-04T15:45:00;0.32;;;0.32;;
8735;SDS011;4404;49.308;12.178;2023-06-04T15:47:02;0.40;;;0.40;;
8735;SDS011;4404;49.308;12.178;2023-06-04T15:49:05;0.50;;;0.50;;
8735;SDS011;4404;49.308;12.178;2023-06-04T15:51:08;0.43;;;0.43;;
8735;SDS011;4404;49.308;12.178;2023-06-04T15:53:10;0.40;;;0.40;;
8735;SDS011;4404;49.308;12.178;2023-06-04T15:55:13;0.45;;;0.45;;
8735;SDS011;4404;49.308;12.178;2023-06-04T15:57:16;0.40;;;0.40;;
8735;SDS011;4404;49.308;12.178;2023-06-04T15:59:21;0.47;;;0.47;;
8735;SDS011;4404;49.308;12.178;2023-06-04T16:01:23;0.45;;;0.45;;
8735;SDS011;4404;49.308;12.178;2023-06-04T16:03:26;0.50;;;0.50;;
8735;SDS011;4404;49.308;12.178;2023-06-04T16:05:28;0.50;;;0.50;;
8735;SDS011;4404;49.308;12.178;2023-06-04T16:07:30;0.50;;;0.50;;
8735;SDS011;4404;49.308;12.178;2023-06-04T16:09:33;0.55;;;0.55;;
8735;SDS011;4404;49.308;12.178;2023-06-04T16:11:35;0.40;;;0.40;;
8735;SDS011;4404;49.308;12.178;2023-06-04T16:13:37;0.40;;;0.40;;
8735;SDS011;4404;49.308;12.178;2023-06-04T16:15:41;0.50;;;0.50;;
8735;SDS011;4404;49.308;12.178;2023-06-04T16:17:43;0.50;;;0.50;;
8735;SDS011;4404;49.308;12.178;2023-06-04T16:19:47;0.50;;;0.50;;
8735;SDS011;4404;49.308;12.178;2023-06-04T16:21:51;0.40;;;0.40;;
8735;SDS011;4404;49.308;12.178;2023-06-04T16:23:54;0.50;;;0.50;;
8735;SDS011;4404;49.308;12.178;2023-06-04T16:25:56;0.52;;;0.52;;
8735;SDS011;4404;49.308;12.178;2023-06-04T16:27:58;0.40;;;0.40;;
8735;SDS011;4404;49.308;12.178;2023-06-04T16:30:00;0.50;;;0.50;;
8735;SDS011;4404;49.308;12.178;2023-06-04T16:32:06;0.47;;;0.47;;
8735;SDS011;4404;49.308;12.178;2023-06-04T16:34:08;0.47;;;0.47;;
8735;SDS011;4404;49.308;12.178;2023-06-04T16:36:11;0.43;;;0.43;;
8735;SDS011;4404;49.308;12.178;2023-06-04T16:38:16;0.50;;;0.50;;
8735;SDS011;4404;49.308;12.178;2023-06-04T16:40:18;0.40;;;0.40;;
8735;SDS011;4404;49.308;12.178;2023-06-04T16:42:20;0.50;;;0.50;;
8735;SDS011;4404;49.308;12.178;2023-06-04T16:44:24;0.45;;;0.45;;
8735;SDS011;4404;49.308;12.178;2023-06-04T16:46:26;0.60;;;0.60;;
8735;SDS011;4404;49.308;12.178;2023-06-04T16:48:30;0.40;;;0.40;;
8735;SDS011;4404;49.308;12.178;2023-06-04T16:50:32;0.50;;;0.50;;
8735;SDS011;4404;49.308;12.178;2023-06-04T16:52:34;0.60;;;0.60;;
8735;SDS011;4404;49.308;12.178;2023-06-04T16:54:37;0.60;;;0.60;;
8735;SDS011;4404;49.308;12.178;2023-06-04T16:56:40;0.47;;;0.47;;
8735;SDS011;4404;49.308;12.178;2023-06-04T16:58:42;0.43;;;0.43;;
8735;SDS011;4404;49.308;12.178;2023-06-04T17:00:44;0.50;;;0.50;;
8735;SDS011;4404;49.308;12.178;2023-06-04T17:02:48;0.45;;;0.45;;
8735;SDS011;4404;49.308;12.178;2023-06-04T17:04:52;0.50;;;0.50;;
8735;SDS011;4404;49.308;12.178;2023-06-04T17:06:54;0.40;;;0.40;;
8735;SDS011;4404;49.308;12.178;2023-06-04T17:09:00;0.52;;;0.52;;
8735;SDS011;4404;49.308;12.178;2023-06-04T17:11:03;0.30;;;0.30;;
8735;SDS011;4404;49.308;12.178;2023-06-04T17:13:05;0.50;;;0.50;;
8735;SDS011;4404;49.308;12.178;2023-06-04T17:15:08;0.65;;;0.65;;
8735;SDS011;4404;49.308;12.178;2023-06-04T17:17:12;0.70;;;0.70;;
8735;SDS011;4404;49.308;12.178;2023-06-04T17:19:15;0.77;;;0.77;;
8735;SDS011;4404;49.308;12.178;2023-06-04T17:21:20;0.60;;;0.60;;
8735;SDS011;4404;49.308;12.178;2023-06-04T17:23:23;0.80;;;0.80;;
8735;SDS011;4404;49.308;12.178;2023-06-04T17:25:27;0.50;;;0.50;;
8735;SDS011;4404;49.308;12.178;2023-06-04T17:27:30;0.60;;;0.60;;
8735;SDS011;4404;49.308;12.178;2023-06-04T17:29:32;0.50;;;0.50;;
8735;SDS011;4404;49.308;12.178;2023-06-04T17:31:36;0.40;;;0.40;;
8735;SDS011;4404;49.308;12.178;2023-06-04T17:33:38;0.40;;;0.40;;
8735;SDS011;4404;49.308;12.178;2023-06-04T17:35:41;0.50;;;0.50;;
8735;SDS011;4404;49.308;12.178;2023-06-04T17:37:45;0.30;;;0.30;;
8735;SDS011;4404;49.308;12.178;2023-06-04T17:39:47;0.50;;;0.50;;
8735;SDS011;4404;49.308;12.178;2023-06-04T17:41:50;0.40;;;0.40;;
8735;SDS011;4404;49.308;12.178;2023-06-04T17:43:52;0.43;;;0.43;;
8735;SDS011;4404;49.308;12.178;2023-06-04T17:45:54;0.47;;;0.47;;
8735;SDS011;4404;49.308;12.178;2023-06-04T17:47:56;0.40;;;0.40;;
8735;SDS011;4404;49.308;12.178;2023-06-04T17:49:58;0.45;;;0.45;;
8735;SDS011;4404;49.308;12.178;2023-06-04T17:52:06;0.55;;;0.55;;
8735;SDS011;4404;49.308;12.178;2023-06-04T17:54:09;0.50;;;0.50;;
8735;SDS011;4404;49.308;12.178;2023-06-04T17:56:12;0.57;;;0.57;;
8735;SDS011;4404;49.308;12.178;2023-06-04T17:58:14;0.60;;;0.60;;
8735;SDS011;4404;49.308;12.178;2023-06-04T18:00:17;0.55;;;0.55;;
8735;SDS011;4404;49.308;12.178;2023-06-04T18:02:19;0.60;;;0.60;;
8735;SDS011;4404;49.308;12.178;2023-06-04T18:04:22;0.70;;;0.70;;
8735;SDS011;4404;49.308;12.178;2023-06-04T18:06:24;0.50;;;0.50;;
8735;SDS011;4404;49.308;12.178;2023-06-04T18:08:27;0.55;;;0.55;;
